sensor_id;sensor_type;location;lat;lon;timestamp;P1;durP1;ratioP1;P2;durP2;ratioP2
39924;SDS011;25592;49.986;11.618;2022-10-31T00:01:37;10.27;;;3.92;;
39924;SDS011;25592;49.986;11.618;2022-10-31T00:04:24;9.40;;;3.83;;
39924;SDS011;25592;49.986;11.618;2022-10-31T00:07:09;11.63;;;4.18;;
39924;SDS011;25592;49.986;11.618;2022-10-31T00:09:54;9.45;;;4.15;;
39924;SDS011;25592;49.986;11.618;2022-10-31T00:12:40;11.88;;;4.25;;
39924;SDS011;25592;49.986;11.618;2022-10-31T00:15:25;15.45;;;5.20;;
39924;SDS011;25592;49.986;11.618;2022-10-31T00:18:10;7.30;;;3.70;;
39924;SDS011;25592;49.986;11.618;2022-10-31T00:21:02;10.25;;;3.97;;
39924;SDS011;25592;49.986;11.618;2022-10-31T00:23:48;10.63;;;4.22;;
39924;SDS011;25592;49.986;11.618;2022-10-31T00:26:34;6.88;;;3.92;;
39924;SDS011;25592;49.986;11.618;2022-10-31T00:29:19;10.75;;;4.75;;
39924;SDS011;25592;49.986;11.618;2022-10-31T00:32:04;10.93;;;4.88;;
39924;SDS011;25592;49.986;11.618;2022-10-31T00:34:50;15.27;;;4.88;;
39924;SDS011;25592;49.986;11.618;2022-10-31T00:37:35;8.35;;;4.68;;
39924;SDS011;25592;49.986;11.618;2022-10-31T00:40:21;9.55;;;4.22;;
39924;SDS011;25592;49.986;11.618;2022-10-31T00:43:06;8.93;;;3.70;;
39924;SDS011;25592;49.986;11.618;2022-10-31T00:45:51;10.38;;;5.18;;
39924;SDS011;25592;49.986;11.618;2022-10-31T00:48:37;14.50;;;5.18;;
39924;SDS011;25592;49.986;11.618;2022-10-31T00:51:22;9.82;;;3.78;;
39924;SDS011;25592;49.986;11.618;2022-10-31T00:54:08;10.48;;;4.25;;
39924;SDS011;25592;49.986;11.618;2022-10-31T00:56:53;15.15;;;7.60;;
39924;SDS011;25592;49.986;11.618;2022-10-31T00:59:39;13.43;;;6.05;;
39924;SDS011;25592;49.986;11.618;2022-10-31T01:02:24;13.13;;;5.60;;
39924;SDS011;25592;49.986;11.618;2022-10-31T01:05:10;12.75;;;4.45;;
39924;SDS011;25592;49.986;11.618;2022-10-31T01:07:56;11.48;;;4.95;;
39924;SDS011;25592;49.986;11.618;2022-10-31T01:10:41;10.85;;;4.57;;
39924;SDS011;25592;49.986;11.618;2022-10-31T01:13:27;17.92;;;4.72;;
39924;SDS011;25592;49.986;11.618;2022-10-31T01:16:17;10.50;;;3.78;;
39924;SDS011;25592;49.986;11.618;2022-10-31T01:19:04;11.13;;;3.40;;
39924;SDS011;25592;49.986;11.618;2022-10-31T01:21:49;10.18;;;4.32;;
39924;SDS011;25592;49.986;11.618;2022-10-31T01:24:34;7.72;;;3.83;;
39924;SDS011;25592;49.986;11.618;2022-10-31T01:27:20;12.02;;;4.13;;
39924;SDS011;25592;49.986;11.618;2022-10-31T01:30:05;9.43;;;4.05;;
39924;SDS011;25592;49.986;11.618;2022-10-31T01:32:51;8.88;;;3.38;;
39924;SDS011;25592;49.986;11.618;2022-10-31T01:35:37;10.02;;;3.42;;
39924;SDS011;25592;49.986;11.618;2022-10-31T01:38:22;10.48;;;4.18;;
39924;SDS011;25592;49.986;11.618;2022-10-31T01:41:09;10.98;;;4.00;;
39924;SDS011;25592;49.986;11.618;2022-10-31T01:43:57;12.07;;;3.83;;
39924;SDS011;25592;49.986;11.618;2022-10-31T01:52:28;10.90;;;4.20;;
39924;SDS011;25592;49.986;11.618;2022-10-31T01:55:30;9.38;;;4.20;;
39924;SDS011;25592;49.986;11.618;2022-10-31T01:58:20;12.57;;;3.90;;
39924;SDS011;25592;49.986;11.618;2022-10-31T02:01:08;8.77;;;4.50;;
39924;SDS011;25592;49.986;11.618;2022-10-31T02:03:54;9.23;;;3.83;;
39924;SDS011;25592;49.986;11.618;2022-10-31T02:09:57;12.75;;;4.57;;
39924;SDS011;25592;49.986;11.618;2022-10-31T02:12:45;6.03;;;3.20;;
39924;SDS011;25592;49.986;11.618;2022-10-31T02:15:31;17.13;;;3.47;;
39924;SDS011;25592;49.986;11.618;2022-10-31T02:18:17;6.90;;;3.30;;
39924;SDS011;25592;49.986;11.618;2022-10-31T02:24:06;11.25;;;3.92;;
39924;SDS011;25592;49.986;11.618;2022-10-31T02:33:07;9.23;;;4.03;;
39924;SDS011;25592;49.986;11.618;2022-10-31T02:38:56;11.53;;;4.87;;
39924;SDS011;25592;49.986;11.618;2022-10-31T02:42:09;7.90;;;3.63;;
39924;SDS011;25592;49.986;11.618;2022-10-31T02:45:08;8.15;;;3.97;;
39924;SDS011;25592;49.986;11.618;2022-10-31T02:48:02;9.05;;;3.70;;
39924;SDS011;25592;49.986;11.618;2022-10-31T02:50:55;5.68;;;2.90;;
39924;SDS011;25592;49.986;11.618;2022-10-31T02:53:43;10.25;;;4.13;;
39924;SDS011;25592;49.986;11.618;2022-10-31T02:56:28;8.68;;;3.70;;
39924;SDS011;25592;49.986;11.618;2022-10-31T02:59:13;13.43;;;3.40;;
39924;SDS011;25592;49.986;11.618;2022-10-31T03:11:03;8.00;;;3.47;;
39924;SDS011;25592;49.986;11.618;2022-10-31T03:13:51;9.85;;;3.60;;
39924;SDS011;25592;49.986;11.618;2022-10-31T03:16:46;9.18;;;3.33;;
39924;SDS011;25592;49.986;11.618;2022-10-31T03:19:34;15.48;;;4.88;;
39924;SDS011;25592;49.986;11.618;2022-10-31T03:22:25;12.77;;;4.63;;
39924;SDS011;25592;49.986;11.618;2022-10-31T03:25:13;8.77;;;4.30;;
39924;SDS011;25592;49.986;11.618;2022-10-31T03:27:59;7.72;;;3.40;;
39924;SDS011;25592;49.986;11.618;2022-10-31T03:30:48;7.43;;;3.47;;
39924;SDS011;25592;49.986;11.618;2022-10-31T03:33:35;8.10;;;3.33;;
39924;SDS011;25592;49.986;11.618;2022-10-31T03:36:23;14.10;;;3.67;;
39924;SDS011;25592;49.986;11.618;2022-10-31T03:39:11;7.38;;;3.50;;
39924;SDS011;25592;49.986;11.618;2022-10-31T03:42:03;12.00;;;3.55;;
39924;SDS011;25592;49.986;11.618;2022-10-31T03:44:53;7.68;;;3.30;;
39924;SDS011;25592;49.986;11.618;2022-10-31T03:47:42;7.88;;;2.90;;
39924;SDS011;25592;49.986;11.618;2022-10-31T03:50:33;12.18;;;4.15;;
39924;SDS011;25592;49.986;11.618;2022-10-31T03:53:33;10.27;;;3.65;;
39924;SDS011;25592;49.986;11.618;2022-10-31T03:56:27;9.60;;;4.18;;
39924;SDS011;25592;49.986;11.618;2022-10-31T03:59:15;16.23;;;3.92;;
39924;SDS011;25592;49.986;11.618;2022-10-31T04:02:06;11.55;;;4.00;;
39924;SDS011;25592;49.986;11.618;2022-10-31T04:04:59;10.18;;;3.60;;
39924;SDS011;25592;49.986;11.618;2022-10-31T04:07:46;13.10;;;4.80;;
39924;SDS011;25592;49.986;11.618;2022-10-31T04:10:33;8.25;;;3.83;;
39924;SDS011;25592;49.986;11.618;2022-10-31T04:13:29;9.68;;;3.75;;
39924;SDS011;25592;49.986;11.618;2022-10-31T04:16:17;7.60;;;3.90;;
39924;SDS011;25592;49.986;11.618;2022-10-31T04:19:03;11.27;;;3.58;;
39924;SDS011;25592;49.986;11.618;2022-10-31T04:21:49;8.77;;;3.60;;
39924;SDS011;25592;49.986;11.618;2022-10-31T04:24:34;9.40;;;3.47;;
39924;SDS011;25592;49.986;11.618;2022-10-31T04:27:23;10.25;;;4.75;;
39924;SDS011;25592;49.986;11.618;2022-10-31T04:30:09;12.95;;;3.42;;
39924;SDS011;25592;49.986;11.618;2022-10-31T04:32:54;7.30;;;3.20;;
39924;SDS011;25592;49.986;11.618;2022-10-31T04:35:40;6.60;;;2.90;;
39924;SDS011;25592;49.986;11.618;2022-10-31T04:38:25;8.02;;;3.50;;
39924;SDS011;25592;49.986;11.618;2022-10-31T04:41:11;10.18;;;3.67;;
39924;SDS011;25592;49.986;11.618;2022-10-31T04:43:56;12.93;;;4.20;;
39924;SDS011;25592;49.986;11.618;2022-10-31T04:46:42;8.43;;;3.00;;
39924;SDS011;25592;49.986;11.618;2022-10-31T04:49:27;10.02;;;3.53;;
39924;SDS011;25592;49.986;11.618;2022-10-31T04:52:13;10.60;;;3.90;;
39924;SDS011;25592;49.986;11.618;2022-10-31T04:54:58;8.93;;;3.78;;
39924;SDS011;25592;49.986;11.618;2022-10-31T04:57:44;11.43;;;3.63;;
39924;SDS011;25592;49.986;11.618;2022-10-31T05:00:31;8.98;;;3.40;;
39924;SDS011;25592;49.986;11.618;2022-10-31T05:03:17;8.70;;;3.30;;
39924;SDS011;25592;49.986;11.618;2022-10-31T05:06:02;10.05;;;3.40;;
39924;SDS011;25592;49.986;11.618;2022-10-31T05:08:47;7.47;;;2.88;;
39924;SDS011;25592;49.986;11.618;2022-10-31T05:11:33;10.85;;;3.65;;
39924;SDS011;25592;49.986;11.618;2022-10-31T05:14:18;10.60;;;3.50;;
39924;SDS011;25592;49.986;11.618;2022-10-31T05:17:04;6.72;;;3.50;;
39924;SDS011;25592;49.986;11.618;2022-10-31T05:19:49;8.75;;;3.42;;
39924;SDS011;25592;49.986;11.618;2022-10-31T05:22:34;9.30;;;4.47;;
39924;SDS011;25592;49.986;11.618;2022-10-31T05:25:21;9.85;;;4.00;;
39924;SDS011;25592;49.986;11.618;2022-10-31T05:28:08;8.10;;;4.22;;
39924;SDS011;25592;49.986;11.618;2022-10-31T05:30:53;8.52;;;3.45;;
39924;SDS011;25592;49.986;11.618;2022-10-31T05:33:38;5.72;;;3.15;;
39924;SDS011;25592;49.986;11.618;2022-10-31T05:36:24;7.15;;;3.50;;
39924;SDS011;25592;49.986;11.618;2022-10-31T05:39:09;10.02;;;4.25;;
39924;SDS011;25592;49.986;11.618;2022-10-31T05:41:55;9.70;;;3.40;;
39924;SDS011;25592;49.986;11.618;2022-10-31T05:44:40;11.45;;;4.15;;
39924;SDS011;25592;49.986;11.618;2022-10-31T05:47:27;8.02;;;3.35;;
39924;SDS011;25592;49.986;11.618;2022-10-31T05:50:12;5.97;;;3.42;;
39924;SDS011;25592;49.986;11.618;2022-10-31T05:52:58;8.85;;;3.13;;
39924;SDS011;25592;49.986;11.618;2022-10-31T05:55:45;10.20;;;3.65;;
39924;SDS011;25592;49.986;11.618;2022-10-31T05:58:31;6.63;;;3.38;;
39924;SDS011;25592;49.986;11.618;2022-10-31T06:01:16;8.20;;;3.20;;
39924;SDS011;25592;49.986;11.618;2022-10-31T06:04:01;11.10;;;4.05;;
39924;SDS011;25592;49.986;11.618;2022-10-31T06:06:47;7.40;;;3.17;;
39924;SDS011;25592;49.986;11.618;2022-10-31T06:09:32;7.82;;;3.00;;
39924;SDS011;25592;49.986;11.618;2022-10-31T06:12:18;6.57;;;3.10;;
39924;SDS011;25592;49.986;11.618;2022-10-31T06:15:06;9.52;;;3.58;;
39924;SDS011;25592;49.986;11.618;2022-10-31T06:17:59;6.63;;;3.92;;
39924;SDS011;25592;49.986;11.618;2022-10-31T06:20:49;8.52;;;3.50;;
39924;SDS011;25592;49.986;11.618;2022-10-31T06:23:34;8.55;;;3.70;;
39924;SDS011;25592;49.986;11.618;2022-10-31T06:26:20;7.30;;;3.13;;
39924;SDS011;25592;49.986;11.618;2022-10-31T06:29:05;10.57;;;3.63;;
39924;SDS011;25592;49.986;11.618;2022-10-31T06:31:51;6.80;;;3.47;;
39924;SDS011;25592;49.986;11.618;2022-10-31T06:34:37;7.55;;;4.68;;
39924;SDS011;25592;49.986;11.618;2022-10-31T06:37:22;7.85;;;3.20;;
39924;SDS011;25592;49.986;11.618;2022-10-31T06:40:08;7.03;;;3.10;;
39924;SDS011;25592;49.986;11.618;2022-10-31T06:42:57;7.85;;;3.35;;
39924;SDS011;25592;49.986;11.618;2022-10-31T06:45:44;9.52;;;3.58;;
39924;SDS011;25592;49.986;11.618;2022-10-31T06:48:29;6.43;;;2.63;;
39924;SDS011;25592;49.986;11.618;2022-10-31T06:51:14;6.65;;;3.35;;
39924;SDS011;25592;49.986;11.618;2022-10-31T06:54:00;7.72;;;3.92;;
39924;SDS011;25592;49.986;11.618;2022-10-31T06:56:46;7.32;;;3.70;;
39924;SDS011;25592;49.986;11.618;2022-10-31T06:59:34;7.53;;;3.35;;
39924;SDS011;25592;49.986;11.618;2022-10-31T07:02:19;8.15;;;3.80;;
39924;SDS011;25592;49.986;11.618;2022-10-31T07:05:05;7.55;;;3.17;;
39924;SDS011;25592;49.986;11.618;2022-10-31T07:08:09;8.35;;;4.15;;
39924;SDS011;25592;49.986;11.618;2022-10-31T07:10:57;8.95;;;3.80;;
39924;SDS011;25592;49.986;11.618;2022-10-31T07:13:42;11.57;;;4.20;;
39924;SDS011;25592;49.986;11.618;2022-10-31T07:16:28;9.57;;;4.20;;
39924;SDS011;25592;49.986;11.618;2022-10-31T07:19:13;10.93;;;3.70;;
39924;SDS011;25592;49.986;11.618;2022-10-31T07:21:58;11.15;;;4.05;;
39924;SDS011;25592;49.986;11.618;2022-10-31T07:24:44;6.93;;;3.85;;
39924;SDS011;25592;49.986;11.618;2022-10-31T07:27:34;7.25;;;3.25;;
39924;SDS011;25592;49.986;11.618;2022-10-31T07:30:26;5.13;;;3.42;;
39924;SDS011;25592;49.986;11.618;2022-10-31T07:33:12;9.88;;;3.92;;
39924;SDS011;25592;49.986;11.618;2022-10-31T07:35:57;8.20;;;4.15;;
39924;SDS011;25592;49.986;11.618;2022-10-31T07:38:43;9.50;;;4.65;;
39924;SDS011;25592;49.986;11.618;2022-10-31T07:41:28;19.30;;;11.15;;
39924;SDS011;25592;49.986;11.618;2022-10-31T07:44:13;14.75;;;6.60;;
39924;SDS011;25592;49.986;11.618;2022-10-31T07:46:59;15.65;;;7.00;;
39924;SDS011;25592;49.986;11.618;2022-10-31T07:49:44;11.13;;;5.43;;
39924;SDS011;25592;49.986;11.618;2022-10-31T07:52:30;14.43;;;5.72;;
39924;SDS011;25592;49.986;11.618;2022-10-31T07:55:15;10.88;;;4.80;;
39924;SDS011;25592;49.986;11.618;2022-10-31T08:00:48;8.00;;;4.82;;
39924;SDS011;25592;49.986;11.618;2022-10-31T08:03:34;16.85;;;4.85;;
39924;SDS011;25592;49.986;11.618;2022-10-31T08:06:19;11.35;;;4.30;;
39924;SDS011;25592;49.986;11.618;2022-10-31T08:09:04;8.45;;;4.53;;
39924;SDS011;25592;49.986;11.618;2022-10-31T08:11:50;13.45;;;5.05;;
39924;SDS011;25592;49.986;11.618;2022-10-31T08:14:35;14.52;;;5.28;;
39924;SDS011;25592;49.986;11.618;2022-10-31T08:17:20;9.80;;;5.10;;
39924;SDS011;25592;49.986;11.618;2022-10-31T08:20:06;14.20;;;6.72;;
39924;SDS011;25592;49.986;11.618;2022-10-31T08:22:56;13.90;;;5.90;;
39924;SDS011;25592;49.986;11.618;2022-10-31T08:25:42;13.52;;;5.50;;
39924;SDS011;25592;49.986;11.618;2022-10-31T08:28:28;10.90;;;5.90;;
39924;SDS011;25592;49.986;11.618;2022-10-31T08:31:13;9.75;;;4.82;;
39924;SDS011;25592;49.986;11.618;2022-10-31T08:33:59;13.02;;;5.38;;
39924;SDS011;25592;49.986;11.618;2022-10-31T08:36:44;9.30;;;5.90;;
39924;SDS011;25592;49.986;11.618;2022-10-31T08:39:30;10.18;;;4.70;;
39924;SDS011;25592;49.986;11.618;2022-10-31T08:42:16;17.60;;;5.30;;
39924;SDS011;25592;49.986;11.618;2022-10-31T08:45:01;12.73;;;6.85;;
39924;SDS011;25592;49.986;11.618;2022-10-31T08:47:47;14.98;;;4.78;;
39924;SDS011;25592;49.986;11.618;2022-10-31T08:50:33;12.23;;;4.80;;
39924;SDS011;25592;49.986;11.618;2022-10-31T08:53:19;9.82;;;4.60;;
39924;SDS011;25592;49.986;11.618;2022-10-31T08:56:04;8.82;;;4.85;;
39924;SDS011;25592;49.986;11.618;2022-10-31T08:58:52;11.20;;;5.03;;
39924;SDS011;25592;49.986;11.618;2022-10-31T09:01:37;12.75;;;4.93;;
39924;SDS011;25592;49.986;11.618;2022-10-31T09:04:23;10.82;;;4.38;;
39924;SDS011;25592;49.986;11.618;2022-10-31T09:07:08;17.65;;;4.80;;
39924;SDS011;25592;49.986;11.618;2022-10-31T09:10:09;15.50;;;5.65;;
39924;SDS011;25592;49.986;11.618;2022-10-31T09:13:16;13.48;;;4.43;;
39924;SDS011;25592;49.986;11.618;2022-10-31T09:16:01;11.00;;;4.63;;
39924;SDS011;25592;49.986;11.618;2022-10-31T09:18:46;14.90;;;5.07;;
39924;SDS011;25592;49.986;11.618;2022-10-31T09:21:32;12.15;;;5.25;;
39924;SDS011;25592;49.986;11.618;2022-10-31T09:24:17;8.82;;;4.82;;
39924;SDS011;25592;49.986;11.618;2022-10-31T09:27:03;12.95;;;5.75;;
39924;SDS011;25592;49.986;11.618;2022-10-31T09:29:48;13.40;;;5.45;;
39924;SDS011;25592;49.986;11.618;2022-10-31T09:32:33;9.02;;;4.22;;
39924;SDS011;25592;49.986;11.618;2022-10-31T09:35:19;11.30;;;4.32;;
39924;SDS011;25592;49.986;11.618;2022-10-31T09:38:13;13.98;;;4.38;;
39924;SDS011;25592;49.986;11.618;2022-10-31T09:44:04;14.73;;;4.70;;
39924;SDS011;25592;49.986;11.618;2022-10-31T09:47:00;8.43;;;3.92;;
39924;SDS011;25592;49.986;11.618;2022-10-31T09:56:14;14.85;;;4.50;;
39924;SDS011;25592;49.986;11.618;2022-10-31T10:01:58;12.20;;;4.57;;
39924;SDS011;25592;49.986;11.618;2022-10-31T10:04:57;13.50;;;4.28;;
39924;SDS011;25592;49.986;11.618;2022-10-31T10:08:07;15.90;;;6.35;;
39924;SDS011;25592;49.986;11.618;2022-10-31T10:17:17;13.45;;;3.97;;
39924;SDS011;25592;49.986;11.618;2022-10-31T10:20:44;9.82;;;3.92;;
39924;SDS011;25592;49.986;11.618;2022-10-31T10:30:12;10.88;;;4.22;;
39924;SDS011;25592;49.986;11.618;2022-10-31T10:35:50;14.05;;;5.10;;
39924;SDS011;25592;49.986;11.618;2022-10-31T10:38:57;14.10;;;4.28;;
39924;SDS011;25592;49.986;11.618;2022-10-31T10:41:47;15.15;;;4.50;;
39924;SDS011;25592;49.986;11.618;2022-10-31T10:44:52;11.88;;;3.92;;
39924;SDS011;25592;49.986;11.618;2022-10-31T10:48:02;11.27;;;3.90;;
39924;SDS011;25592;49.986;11.618;2022-10-31T10:50:54;12.98;;;4.43;;
39924;SDS011;25592;49.986;11.618;2022-10-31T10:59:42;9.10;;;4.07;;
39924;SDS011;25592;49.986;11.618;2022-10-31T11:02:30;13.77;;;4.32;;
39924;SDS011;25592;49.986;11.618;2022-10-31T11:05:33;14.60;;;4.57;;
39924;SDS011;25592;49.986;11.618;2022-10-31T11:08:23;15.82;;;5.38;;
39924;SDS011;25592;49.986;11.618;2022-10-31T11:14:03;10.33;;;4.17;;
39924;SDS011;25592;49.986;11.618;2022-10-31T11:17:09;10.85;;;4.00;;
39924;SDS011;25592;49.986;11.618;2022-10-31T11:26:19;8.30;;;3.65;;
39924;SDS011;25592;49.986;11.618;2022-10-31T11:29:05;10.02;;;3.97;;
39924;SDS011;25592;49.986;11.618;2022-10-31T11:31:57;13.30;;;5.50;;
39924;SDS011;25592;49.986;11.618;2022-10-31T11:34:45;11.13;;;3.85;;
39924;SDS011;25592;49.986;11.618;2022-10-31T11:37:41;16.02;;;4.45;;
39924;SDS011;25592;49.986;11.618;2022-10-31T11:40:29;11.13;;;4.75;;
39924;SDS011;25592;49.986;11.618;2022-10-31T11:43:15;18.95;;;6.25;;
39924;SDS011;25592;49.986;11.618;2022-10-31T11:46:10;12.00;;;4.15;;
39924;SDS011;25592;49.986;11.618;2022-10-31T11:48:56;6.40;;;3.53;;
39924;SDS011;25592;49.986;11.618;2022-10-31T11:51:42;15.07;;;4.22;;
39924;SDS011;25592;49.986;11.618;2022-10-31T11:54:28;15.40;;;4.90;;
39924;SDS011;25592;49.986;11.618;2022-10-31T11:57:29;15.20;;;4.28;;
39924;SDS011;25592;49.986;11.618;2022-10-31T12:00:27;15.45;;;4.43;;
39924;SDS011;25592;49.986;11.618;2022-10-31T12:06:30;12.15;;;4.80;;
39924;SDS011;25592;49.986;11.618;2022-10-31T12:12:31;13.85;;;4.18;;
39924;SDS011;25592;49.986;11.618;2022-10-31T12:18:28;12.93;;;4.53;;
39924;SDS011;25592;49.986;11.618;2022-10-31T12:21:50;14.40;;;5.03;;
39924;SDS011;25592;49.986;11.618;2022-10-31T12:25:20;12.98;;;3.85;;
39924;SDS011;25592;49.986;11.618;2022-10-31T12:43:45;10.60;;;4.65;;
39924;SDS011;25592;49.986;11.618;2022-10-31T12:46:57;12.45;;;4.70;;
39924;SDS011;25592;49.986;11.618;2022-10-31T12:56:39;15.10;;;4.13;;
39924;SDS011;25592;49.986;11.618;2022-10-31T13:02:33;9.85;;;3.83;;
39924;SDS011;25592;49.986;11.618;2022-10-31T13:05:29;9.77;;;4.03;;
39924;SDS011;25592;49.986;11.618;2022-10-31T13:08:30;15.10;;;4.60;;
39924;SDS011;25592;49.986;11.618;2022-10-31T13:11:36;9.55;;;5.10;;
39924;SDS011;25592;49.986;11.618;2022-10-31T13:17:21;17.10;;;4.83;;
39924;SDS011;25592;49.986;11.618;2022-10-31T13:20:17;11.55;;;4.22;;
39924;SDS011;25592;49.986;11.618;2022-10-31T13:23:14;12.88;;;5.38;;
39924;SDS011;25592;49.986;11.618;2022-10-31T13:29:32;13.27;;;4.20;;
39924;SDS011;25592;49.986;11.618;2022-10-31T13:32:20;9.50;;;4.15;;
39924;SDS011;25592;49.986;11.618;2022-10-31T13:35:07;7.70;;;4.43;;
39924;SDS011;25592;49.986;11.618;2022-10-31T13:38:14;11.30;;;5.25;;
39924;SDS011;25592;49.986;11.618;2022-10-31T13:41:06;15.13;;;4.72;;
39924;SDS011;25592;49.986;11.618;2022-10-31T13:44:06;11.90;;;4.95;;
39924;SDS011;25592;49.986;11.618;2022-10-31T13:46:58;16.65;;;4.88;;
39924;SDS011;25592;49.986;11.618;2022-10-31T13:49:43;9.98;;;4.10;;
39924;SDS011;25592;49.986;11.618;2022-10-31T13:52:29;11.77;;;5.20;;
39924;SDS011;25592;49.986;11.618;2022-10-31T14:01:46;17.77;;;5.85;;
39924;SDS011;25592;49.986;11.618;2022-10-31T14:04:37;13.13;;;5.43;;
39924;SDS011;25592;49.986;11.618;2022-10-31T14:07:30;10.30;;;4.38;;
39924;SDS011;25592;49.986;11.618;2022-10-31T14:10:25;12.30;;;5.30;;
39924;SDS011;25592;49.986;11.618;2022-10-31T14:13:18;11.25;;;4.85;;
39924;SDS011;25592;49.986;11.618;2022-10-31T14:16:16;11.45;;;5.22;;
39924;SDS011;25592;49.986;11.618;2022-10-31T14:19:13;19.13;;;6.20;;
39924;SDS011;25592;49.986;11.618;2022-10-31T14:22:01;14.52;;;5.57;;
39924;SDS011;25592;49.986;11.618;2022-10-31T14:24:46;16.48;;;5.30;;
39924;SDS011;25592;49.986;11.618;2022-10-31T14:27:33;11.75;;;4.93;;
39924;SDS011;25592;49.986;11.618;2022-10-31T14:30:28;14.43;;;5.28;;
39924;SDS011;25592;49.986;11.618;2022-10-31T14:33:17;14.60;;;5.28;;
39924;SDS011;25592;49.986;11.618;2022-10-31T14:36:07;12.80;;;5.45;;
39924;SDS011;25592;49.986;11.618;2022-10-31T14:42:23;10.88;;;4.13;;
39924;SDS011;25592;49.986;11.618;2022-10-31T14:49:00;10.27;;;3.83;;
39924;SDS011;25592;49.986;11.618;2022-10-31T14:52:10;12.02;;;4.38;;
39924;SDS011;25592;49.986;11.618;2022-10-31T14:54:58;8.75;;;4.00;;
39924;SDS011;25592;49.986;11.618;2022-10-31T14:57:49;8.55;;;4.18;;
39924;SDS011;25592;49.986;11.618;2022-10-31T15:00:38;11.52;;;4.60;;
39924;SDS011;25592;49.986;11.618;2022-10-31T15:03:32;7.93;;;4.05;;
39924;SDS011;25592;49.986;11.618;2022-10-31T15:06:20;11.02;;;4.57;;
39924;SDS011;25592;49.986;11.618;2022-10-31T15:09:27;8.43;;;4.18;;
39924;SDS011;25592;49.986;11.618;2022-10-31T15:12:31;9.85;;;3.95;;
39924;SDS011;25592;49.986;11.618;2022-10-31T15:15:22;13.10;;;4.35;;
39924;SDS011;25592;49.986;11.618;2022-10-31T15:18:14;11.43;;;3.88;;
39924;SDS011;25592;49.986;11.618;2022-10-31T15:21:01;13.18;;;5.38;;
39924;SDS011;25592;49.986;11.618;2022-10-31T15:23:52;10.32;;;4.28;;
39924;SDS011;25592;49.986;11.618;2022-10-31T15:26:39;13.45;;;3.95;;
39924;SDS011;25592;49.986;11.618;2022-10-31T15:29:25;9.25;;;4.45;;
39924;SDS011;25592;49.986;11.618;2022-10-31T15:32:18;8.75;;;3.90;;
39924;SDS011;25592;49.986;11.618;2022-10-31T15:35:08;14.40;;;4.47;;
39924;SDS011;25592;49.986;11.618;2022-10-31T15:37:54;11.77;;;3.75;;
39924;SDS011;25592;49.986;11.618;2022-10-31T15:40:50;10.52;;;4.60;;
39924;SDS011;25592;49.986;11.618;2022-10-31T15:43:37;13.18;;;4.63;;
39924;SDS011;25592;49.986;11.618;2022-10-31T15:46:24;8.98;;;3.85;;
39924;SDS011;25592;49.986;11.618;2022-10-31T15:49:19;9.20;;;4.18;;
39924;SDS011;25592;49.986;11.618;2022-10-31T15:52:14;12.68;;;4.80;;
39924;SDS011;25592;49.986;11.618;2022-10-31T15:55:19;14.02;;;4.32;;
39924;SDS011;25592;49.986;11.618;2022-10-31T15:58:10;12.35;;;4.20;;
39924;SDS011;25592;49.986;11.618;2022-10-31T16:03:54;9.18;;;4.47;;
39924;SDS011;25592;49.986;11.618;2022-10-31T16:06:43;14.93;;;4.28;;
39924;SDS011;25592;49.986;11.618;2022-10-31T16:09:28;9.95;;;4.35;;
39924;SDS011;25592;49.986;11.618;2022-10-31T16:12:14;15.20;;;4.80;;
39924;SDS011;25592;49.986;11.618;2022-10-31T16:15:12;13.98;;;4.28;;
39924;SDS011;25592;49.986;11.618;2022-10-31T16:17:59;8.35;;;4.00;;
39924;SDS011;25592;49.986;11.618;2022-10-31T16:20:52;10.60;;;4.20;;
39924;SDS011;25592;49.986;11.618;2022-10-31T16:23:46;11.45;;;3.42;;
39924;SDS011;25592;49.986;11.618;2022-10-31T16:26:34;9.30;;;4.03;;
39924;SDS011;25592;49.986;11.618;2022-10-31T16:32:27;11.93;;;3.60;;
39924;SDS011;25592;49.986;11.618;2022-10-31T16:35:27;8.45;;;3.42;;
39924;SDS011;25592;49.986;11.618;2022-10-31T16:38:17;10.68;;;3.22;;
39924;SDS011;25592;49.986;11.618;2022-10-31T16:41:02;7.13;;;3.22;;
39924;SDS011;25592;49.986;11.618;2022-10-31T16:43:48;12.50;;;3.83;;
39924;SDS011;25592;49.986;11.618;2022-10-31T16:46:36;13.02;;;3.85;;
39924;SDS011;25592;49.986;11.618;2022-10-31T16:49:22;9.45;;;4.38;;
39924;SDS011;25592;49.986;11.618;2022-10-31T16:52:07;6.95;;;3.70;;
39924;SDS011;25592;49.986;11.618;2022-10-31T16:54:53;11.50;;;4.13;;
39924;SDS011;25592;49.986;11.618;2022-10-31T16:57:39;9.95;;;4.75;;
39924;SDS011;25592;49.986;11.618;2022-10-31T17:00:27;10.15;;;4.28;;
39924;SDS011;25592;49.986;11.618;2022-10-31T17:03:13;11.68;;;4.63;;
39924;SDS011;25592;49.986;11.618;2022-10-31T17:05:58;13.05;;;5.28;;
39924;SDS011;25592;49.986;11.618;2022-10-31T17:08:44;12.02;;;5.82;;
39924;SDS011;25592;49.986;11.618;2022-10-31T17:11:29;8.02;;;4.47;;
39924;SDS011;25592;49.986;11.618;2022-10-31T17:14:15;11.38;;;5.75;;
39924;SDS011;25592;49.986;11.618;2022-10-31T17:17:01;12.40;;;5.65;;
39924;SDS011;25592;49.986;11.618;2022-10-31T17:19:46;16.23;;;5.72;;
39924;SDS011;25592;49.986;11.618;2022-10-31T17:22:32;10.48;;;4.50;;
39924;SDS011;25592;49.986;11.618;2022-10-31T17:25:18;9.68;;;4.70;;
39924;SDS011;25592;49.986;11.618;2022-10-31T17:28:06;10.55;;;4.47;;
39924;SDS011;25592;49.986;11.618;2022-10-31T17:30:55;12.68;;;5.80;;
39924;SDS011;25592;49.986;11.618;2022-10-31T17:33:42;10.93;;;5.30;;
39924;SDS011;25592;49.986;11.618;2022-10-31T17:36:28;13.50;;;5.60;;
39924;SDS011;25592;49.986;11.618;2022-10-31T17:39:13;14.15;;;5.22;;
39924;SDS011;25592;49.986;11.618;2022-10-31T17:41:59;11.10;;;5.10;;
39924;SDS011;25592;49.986;11.618;2022-10-31T17:44:45;11.15;;;5.22;;
39924;SDS011;25592;49.986;11.618;2022-10-31T17:47:31;14.60;;;4.97;;
39924;SDS011;25592;49.986;11.618;2022-10-31T17:50:18;9.80;;;4.60;;
39924;SDS011;25592;49.986;11.618;2022-10-31T17:53:05;13.48;;;4.90;;
39924;SDS011;25592;49.986;11.618;2022-10-31T17:55:50;12.77;;;5.80;;
39924;SDS011;25592;49.986;11.618;2022-10-31T17:58:36;12.88;;;6.20;;
39924;SDS011;25592;49.986;11.618;2022-10-31T18:01:22;13.70;;;6.28;;
39924;SDS011;25592;49.986;11.618;2022-10-31T18:04:08;8.32;;;4.82;;
39924;SDS011;25592;49.986;11.618;2022-10-31T18:06:53;12.48;;;5.30;;
39924;SDS011;25592;49.986;11.618;2022-10-31T18:09:39;9.65;;;4.32;;
39924;SDS011;25592;49.986;11.618;2022-10-31T18:12:25;12.27;;;5.65;;
39924;SDS011;25592;49.986;11.618;2022-10-31T18:15:11;17.13;;;6.28;;
39924;SDS011;25592;49.986;11.618;2022-10-31T18:17:56;24.92;;;11.05;;
39924;SDS011;25592;49.986;11.618;2022-10-31T18:20:42;14.48;;;8.15;;
39924;SDS011;25592;49.986;11.618;2022-10-31T18:23:28;20.00;;;6.40;;
39924;SDS011;25592;49.986;11.618;2022-10-31T18:26:13;15.43;;;6.68;;
39924;SDS011;25592;49.986;11.618;2022-10-31T18:28:59;9.70;;;4.95;;
39924;SDS011;25592;49.986;11.618;2022-10-31T18:31:44;11.75;;;5.53;;
39924;SDS011;25592;49.986;11.618;2022-10-31T18:34:32;14.13;;;5.72;;
39924;SDS011;25592;49.986;11.618;2022-10-31T18:37:17;12.70;;;6.22;;
39924;SDS011;25592;49.986;11.618;2022-10-31T18:40:03;11.85;;;5.80;;
39924;SDS011;25592;49.986;11.618;2022-10-31T18:42:49;13.05;;;6.03;;
39924;SDS011;25592;49.986;11.618;2022-10-31T18:45:35;14.88;;;6.40;;
39924;SDS011;25592;49.986;11.618;2022-10-31T18:48:32;12.93;;;5.75;;
39924;SDS011;25592;49.986;11.618;2022-10-31T18:51:17;11.00;;;5.15;;